This is the latest recevied weather packets stored in our database for station/object OK4PZ-5. If no packets are shown the sender has not sent any weather packets the latest 10 day(s).
| Time | Temp. | Humidity | Pressure | Rain* | Wind** | Luminosity | Snow |
|---|---|---|---|---|---|---|---|
| 1777153502 | 10.56° C | 41% | 1017 hPa | 0 mm | - | - | - |
| 1777152603 | 8.33° C | 55% | 1016 hPa | 0 mm | - | - | - |
| 1777151702 | 8.89° C | 52% | 1016 hPa | 0 mm | - | - | - |
| 1777150803 | 9.44° C | 52% | 1016 hPa | 0 mm | - | - | - |
| 1777149902 | 10° C | 49% | 1016 hPa | 0 mm | - | - | - |
| 1777149002 | 11.67° C | 43% | 1016 hPa | 0 mm | - | - | - |
| 1777148102 | 11.67° C | 39% | 1016 hPa | 0 mm | - | - | - |
| 1777147202 | 13.33° C | 34% | 1016 hPa | 0 mm | - | - | - |
| 1777146302 | 13.89° C | 33% | 1016 hPa | 0 mm | - | - | - |
| 1777145402 | 13.89° C | 32% | 1016 hPa | 0 mm | - | - | - |
| 1777144502 | 14.44° C | 31% | 1016 hPa | 0 mm | - | - | - |
| 1777143602 | 15° C | 30% | 1016 hPa | 0 mm | - | - | - |
| 1777142702 | 15.56° C | 28% | 1016 hPa | 0 mm | - | - | - |
| 1777141803 | 16.11° C | 29% | 1015 hPa | 0 mm | - | - | - |
| 1777140903 | 16.67° C | 30% | 1015 hPa | 0 mm | - | - | - |
| 1777140002 | 17.22° C | 29% | 1015 hPa | 0 mm | - | - | - |
| 1777139102 | 17.78° C | 27% | 1015 hPa | 0 mm | - | - | - |
| 1777138203 | 19.44° C | 25% | 1015 hPa | 0 mm | - | - | - |
| 1777137302 | 20° C | 25% | 1015 hPa | 0 mm | - | - | - |
| 1777136402 | 20.56° C | 24% | 1015 hPa | 0 mm | - | - | - |
| 1777135503 | 20.56° C | 22% | 1015 hPa | 0 mm | - | - | - |
| 1777134602 | 21.11° C | 21% | 1015 hPa | 0 mm | - | - | - |
| 1777133702 | 20.56° C | 20% | 1015 hPa | 0 mm | - | - | - |
| 1777132802 | 21.11° C | 19% | 1015 hPa | 0 mm | - | - | - |
| 1777131903 | 21.11° C | 20% | 1015 hPa | 0 mm | - | - | - |
* Rain latest hour (hover to see other rain measurements)
** Current wind speed in m/s (hover to see current wind gust speed)